createdAt,value
2022-09-14T00:01:55.935Z,7.77
2022-09-14T00:04:24.334Z,7.87
2022-09-14T00:06:52.523Z,8.03
2022-09-14T00:09:24.066Z,8.03
2022-09-14T00:11:53.032Z,7.23
2022-09-14T00:14:21.839Z,8.70
2022-09-14T00:16:52.310Z,7.23
2022-09-14T00:19:22.383Z,7.57
2022-09-14T00:21:53.289Z,7.40
2022-09-14T00:24:22.242Z,6.80
2022-09-14T00:26:50.830Z,6.90
2022-09-14T00:29:19.962Z,6.80
2022-09-14T00:31:48.266Z,7.70
2022-09-14T00:34:19.211Z,7.10
2022-09-14T00:36:49.869Z,7.07
2022-09-14T00:39:20.177Z,6.90
2022-09-14T00:41:49.787Z,6.73
2022-09-14T00:44:55.298Z,7.50
2022-09-14T00:47:24.297Z,7.50
2022-09-14T00:49:53.962Z,6.97
2022-09-14T00:52:26.203Z,6.37
2022-09-14T00:54:57.619Z,6.60
2022-09-14T00:57:29.524Z,6.80
2022-09-14T00:59:58.579Z,5.97
2022-09-14T01:02:29.588Z,6.60
2022-09-14T01:04:59.432Z,6.33
2022-09-14T01:07:51.870Z,7.00
2022-09-14T01:10:31.808Z,6.80
2022-09-14T01:13:10.144Z,6.80
2022-09-14T01:15:45.446Z,6.30
2022-09-14T01:18:22.202Z,7.07
2022-09-14T01:20:59.640Z,7.17
2022-09-14T01:23:34.473Z,7.40
2022-09-14T01:26:32.855Z,9.07
2022-09-14T01:29:07.616Z,8.37
2022-09-14T01:31:39.789Z,8.30
2022-09-14T01:34:14.641Z,8.43
2022-09-14T01:36:48.883Z,7.90
2022-09-14T01:39:24.586Z,7.77
2022-09-14T01:41:55.453Z,7.00
2022-09-14T01:44:28.774Z,7.50
2022-09-14T01:47:00.981Z,7.73
2022-09-14T01:49:37.704Z,7.00
2022-09-14T01:52:10.355Z,6.33
2022-09-14T01:54:43.531Z,6.23
2022-09-14T01:57:16.548Z,7.20
2022-09-14T01:59:52.238Z,7.67
2022-09-14T02:02:25.900Z,8.40
2022-09-14T02:04:59.421Z,9.00
2022-09-14T02:07:27.713Z,9.10
2022-09-14T02:09:57.102Z,9.53
2022-09-14T02:12:26.809Z,8.37
2022-09-14T02:14:57.159Z,9.13
2022-09-14T02:17:25.858Z,8.33
2022-09-14T02:19:58.231Z,8.37
2022-09-14T02:22:28.474Z,7.83
2022-09-14T02:24:57.524Z,7.63
2022-09-14T02:27:26.457Z,7.57
2022-09-14T02:29:56.483Z,8.23
2022-09-14T02:32:36.879Z,8.50
2022-09-14T02:35:16.776Z,8.53
2022-09-14T02:37:58.863Z,8.43
2022-09-14T02:40:34.565Z,8.70
2022-09-14T02:43:11.955Z,7.70
2022-09-14T02:45:49.140Z,7.80
2022-09-14T02:48:24.818Z,7.60
2022-09-14T02:50:57.704Z,7.43
2022-09-14T02:53:34.182Z,7.57
2022-09-14T02:56:06.174Z,7.47
2022-09-14T02:58:38.784Z,7.37
2022-09-14T03:01:10.229Z,7.37
2022-09-14T03:03:38.670Z,7.23
2022-09-14T03:06:07.953Z,6.60
2022-09-14T03:08:36.902Z,7.10
2022-09-14T03:11:06.391Z,7.37
2022-09-14T03:13:35.783Z,7.07
2022-09-14T03:16:08.583Z,7.57
2022-09-14T03:18:37.886Z,6.67
2022-09-14T03:21:07.858Z,6.10
2022-09-14T03:23:39.298Z,7.17
2022-09-14T03:26:11.861Z,7.10
2022-09-14T03:28:40.878Z,7.23
2022-09-14T03:31:13.061Z,7.10
2022-09-14T03:33:41.891Z,7.37
2022-09-14T03:36:24.212Z,8.27
2022-09-14T03:39:06.109Z,8.30
2022-09-14T03:41:35.004Z,6.97
2022-09-14T03:44:09.711Z,7.10
2022-09-14T03:46:39.596Z,8.10
2022-09-14T03:49:07.920Z,7.67
2022-09-14T03:51:39.189Z,7.47
2022-09-14T03:54:07.437Z,8.17
2022-09-14T03:56:36.688Z,7.43
2022-09-14T03:59:05.053Z,7.30
2022-09-14T04:01:33.554Z,7.10
2022-09-14T04:04:03.725Z,7.70
2022-09-14T04:06:32.959Z,7.90
2022-09-14T04:09:01.219Z,7.47
2022-09-14T04:11:31.479Z,7.70
2022-09-14T04:14:05.358Z,8.03
2022-09-14T04:17:14.479Z,7.80
2022-09-14T04:19:49.461Z,7.00
2022-09-14T04:22:22.399Z,8.10
2022-09-14T04:24:50.952Z,7.73
2022-09-14T04:27:28.392Z,8.00
2022-09-14T04:29:57.294Z,7.30
2022-09-14T04:32:25.674Z,8.03
2022-09-14T04:34:55.470Z,8.10
2022-09-14T04:37:26.174Z,7.83
2022-09-14T04:39:57.873Z,7.23
2022-09-14T04:42:29.031Z,7.50
2022-09-14T04:44:58.078Z,7.47
2022-09-14T04:47:39.549Z,7.77
2022-09-14T04:50:15.959Z,6.83
2022-09-14T04:52:44.972Z,7.10
2022-09-14T04:55:13.393Z,7.13
2022-09-14T04:57:59.292Z,7.63
2022-09-14T05:00:30.092Z,6.70
2022-09-14T05:03:14.078Z,6.43
2022-09-14T05:05:50.702Z,6.53
2022-09-14T05:08:34.847Z,5.77
2022-09-14T05:11:07.147Z,7.10
2022-09-14T05:13:49.744Z,6.73
2022-09-14T05:16:27.205Z,6.70
2022-09-14T05:18:58.934Z,6.97
2022-09-14T05:21:33.087Z,6.90
2022-09-14T05:24:02.932Z,7.83
2022-09-14T05:26:32.642Z,7.47
2022-09-14T05:29:02.584Z,6.77
2022-09-14T05:31:49.512Z,6.63
2022-09-14T05:34:31.509Z,6.20
2022-09-14T05:40:54.569Z,5.90
2022-09-14T05:43:28.865Z,6.10
2022-09-14T05:45:57.525Z,6.27
2022-09-14T05:48:28.163Z,7.13
2022-09-14T05:51:06.545Z,6.43
2022-09-14T05:53:40.113Z,13.00
2022-09-14T05:56:17.770Z,7.20
2022-09-14T05:58:46.766Z,7.73
2022-09-14T06:07:54.338Z,7.47
2022-09-14T06:10:23.597Z,7.67
2022-09-14T06:13:01.043Z,7.87
2022-09-14T06:15:34.904Z,9.07
2022-09-14T06:18:04.129Z,18.03
2022-09-14T06:20:32.623Z,9.13
2022-09-14T06:23:05.915Z,9.27
2022-09-14T06:25:34.707Z,9.27
2022-09-14T06:28:09.719Z,8.83
2022-09-14T06:30:49.328Z,9.30
2022-09-14T06:33:18.558Z,8.67
2022-09-14T06:35:59.794Z,8.30
2022-09-14T06:38:34.890Z,9.73
2022-09-14T06:41:05.443Z,10.17
2022-09-14T06:43:40.024Z,9.27
2022-09-14T06:46:26.427Z,9.53
2022-09-14T06:49:07.275Z,8.03
2022-09-14T06:51:38.186Z,8.37
2022-09-14T06:54:15.460Z,8.90
2022-09-14T06:56:45.526Z,8.13
2022-09-14T06:59:23.573Z,7.47
2022-09-14T07:01:56.536Z,7.40
2022-09-14T07:04:34.868Z,7.27
2022-09-14T07:10:37.405Z,8.23
2022-09-14T07:13:13.557Z,6.80
2022-09-14T07:19:10.134Z,6.37
2022-09-14T07:21:45.002Z,6.63
2022-09-14T07:24:18.811Z,6.03
2022-09-14T07:26:54.366Z,7.03
2022-09-14T07:29:25.149Z,5.90
2022-09-14T07:32:02.618Z,9.60
2022-09-14T07:34:31.240Z,6.17
2022-09-14T07:37:33.485Z,5.60
2022-09-14T07:40:13.740Z,6.13
2022-09-14T07:46:18.305Z,5.40
2022-09-14T07:49:02.983Z,5.60
2022-09-14T07:57:56.663Z,4.73
2022-09-14T08:00:29.625Z,5.10
2022-09-14T08:03:32.217Z,6.00
2022-09-14T08:06:06.072Z,4.73
2022-09-14T08:08:36.643Z,4.70
2022-09-14T08:11:13.586Z,5.20
2022-09-14T08:13:53.433Z,4.57
2022-09-14T08:16:24.122Z,4.70
2022-09-14T08:18:56.409Z,4.80
2022-09-14T08:21:26.582Z,3.60
2022-09-14T08:23:55.348Z,3.80
2022-09-14T08:26:25.440Z,4.27
2022-09-14T08:29:04.118Z,4.13
2022-09-14T08:31:47.602Z,4.27
2022-09-14T08:34:27.084Z,3.90
2022-09-14T08:37:17.287Z,4.33
2022-09-14T08:39:50.950Z,4.10
2022-09-14T08:42:23.272Z,4.00
2022-09-14T08:44:58.691Z,3.40
2022-09-14T08:47:33.883Z,3.57
2022-09-14T08:50:23.510Z,3.23
2022-09-14T08:53:03.418Z,3.17
2022-09-14T08:55:41.184Z,3.57
2022-09-14T08:58:43.594Z,3.37
2022-09-14T09:01:24.903Z,3.53
2022-09-14T09:04:13.368Z,3.47
2022-09-14T09:06:49.489Z,3.17
2022-09-14T09:09:33.810Z,4.03
2022-09-14T09:12:06.112Z,3.33
2022-09-14T09:14:37.563Z,3.77
2022-09-14T09:17:24.403Z,10.93
2022-09-14T09:20:14.251Z,3.00
2022-09-14T09:22:49.068Z,2.87
2022-09-14T09:25:32.091Z,3.27
2022-09-14T09:28:04.800Z,3.13
2022-09-14T09:30:33.499Z,3.50
2022-09-14T09:33:01.961Z,3.20
2022-09-14T09:35:30.526Z,3.03
2022-09-14T09:38:14.466Z,2.60
2022-09-14T09:41:02.287Z,3.40
2022-09-14T09:43:49.361Z,3.20
2022-09-14T09:46:25.734Z,3.33
2022-09-14T09:49:05.384Z,3.80
2022-09-14T09:51:36.107Z,3.30
2022-09-14T09:54:20.263Z,2.90
2022-09-14T09:56:56.657Z,3.27
2022-09-14T09:59:38.773Z,3.47
2022-09-14T10:02:39.434Z,3.30
2022-09-14T10:05:24.614Z,3.23
2022-09-14T10:08:01.051Z,3.90
2022-09-14T10:10:44.751Z,4.70
2022-09-14T10:13:30.406Z,4.27
2022-09-14T10:16:22.549Z,3.47
2022-09-14T10:23:23.769Z,2.60
2022-09-14T10:26:20.465Z,3.10
2022-09-14T10:28:52.246Z,2.83
2022-09-14T10:31:36.767Z,2.20
2022-09-14T10:34:17.330Z,2.10
2022-09-14T10:36:52.605Z,2.43
2022-09-14T10:39:26.509Z,2.30
2022-09-14T10:42:01.296Z,2.30
2022-09-14T10:45:10.383Z,2.60
2022-09-14T10:48:19.807Z,1.80
2022-09-14T10:51:14.591Z,1.70
2022-09-14T10:54:04.264Z,3.90
2022-09-14T10:56:55.113Z,1.70
2022-09-14T10:59:31.960Z,1.40
2022-09-14T11:02:35.856Z,1.77
2022-09-14T11:05:17.360Z,1.40
2022-09-14T11:11:52.492Z,1.83
2022-09-14T11:14:44.636Z,2.47
2022-09-14T11:17:48.363Z,2.33
2022-09-14T11:20:45.055Z,2.27
2022-09-14T11:23:32.427Z,2.33
2022-09-14T11:26:04.720Z,2.03
2022-09-14T11:28:41.286Z,2.67
2022-09-14T11:31:16.908Z,2.60
2022-09-14T11:34:13.170Z,2.63
2022-09-14T11:48:52.399Z,2.70
2022-09-14T11:51:52.601Z,2.30
2022-09-14T11:54:36.767Z,3.00
2022-09-14T11:57:46.487Z,2.13
2022-09-14T12:15:35.173Z,2.40
2022-09-14T12:18:53.265Z,2.43
2022-09-14T12:22:00.624Z,2.40
2022-09-14T12:27:56.124Z,3.60
2022-09-14T12:31:51.709Z,3.73
2022-09-14T12:34:26.233Z,3.70
2022-09-14T12:37:26.234Z,4.10
2022-09-14T12:40:48.410Z,4.83
2022-09-14T12:43:59.592Z,4.07
2022-09-14T12:46:52.778Z,4.20
2022-09-14T12:56:56.621Z,4.33
2022-09-14T13:03:16.664Z,5.33
2022-09-14T13:05:50.854Z,5.80
2022-09-14T13:08:24.863Z,6.57
2022-09-14T13:10:54.341Z,7.50
2022-09-14T13:13:35.522Z,7.33
2022-09-14T13:23:08.535Z,10.90
2022-09-14T13:26:04.979Z,11.27
2022-09-14T13:28:46.852Z,12.50
2022-09-14T13:31:32.604Z,11.73
2022-09-14T13:34:17.322Z,12.33
2022-09-14T13:37:04.287Z,12.57
2022-09-14T13:39:45.782Z,12.30
2022-09-14T13:42:22.862Z,11.10
2022-09-14T13:48:03.664Z,11.67
2022-09-14T13:50:38.117Z,13.60
2022-09-14T13:53:06.585Z,13.60
2022-09-14T13:55:45.689Z,13.40
2022-09-14T13:58:23.446Z,14.13
2022-09-14T14:01:02.825Z,15.13
2022-09-14T14:03:35.987Z,17.60
2022-09-14T14:06:07.185Z,17.80
2022-09-14T14:08:36.876Z,15.63
2022-09-14T14:11:20.380Z,19.53
2022-09-14T14:14:01.405Z,17.97
2022-09-14T14:16:46.869Z,16.97
2022-09-14T14:19:36.476Z,16.67
2022-09-14T14:22:20.846Z,16.97
2022-09-14T14:25:14.152Z,17.37
2022-09-14T14:28:10.048Z,18.37
2022-09-14T14:30:43.718Z,17.97
2022-09-14T14:33:20.547Z,17.07
2022-09-14T14:35:59.998Z,16.97
2022-09-14T14:38:38.078Z,16.00
2022-09-14T14:41:21.181Z,16.63
2022-09-14T14:43:57.279Z,15.53
2022-09-14T14:46:38.104Z,15.53
2022-09-14T14:49:23.842Z,15.73
2022-09-14T14:51:54.488Z,14.90
2022-09-14T14:54:23.865Z,15.63
2022-09-14T14:56:53.353Z,15.83
2022-09-14T14:59:30.042Z,17.13
2022-09-14T15:01:59.576Z,16.43
2022-09-14T15:04:29.455Z,17.07
2022-09-14T15:06:57.804Z,17.60
2022-09-14T15:09:35.667Z,17.70
2022-09-14T15:12:04.461Z,17.73
2022-09-14T15:14:33.850Z,19.47
2022-09-14T15:27:34.359Z,22.07
2022-09-14T15:30:13.040Z,21.53
2022-09-14T15:32:45.062Z,21.70
2022-09-14T15:35:21.590Z,18.97
2022-09-14T15:37:57.623Z,16.97
2022-09-14T15:40:54.758Z,17.47
2022-09-14T15:46:27.949Z,14.17
2022-09-14T15:49:02.627Z,13.37
2022-09-14T15:55:07.956Z,14.90
2022-09-14T15:57:47.260Z,15.07
2022-09-14T16:00:20.461Z,15.97
2022-09-14T16:02:51.355Z,15.97
2022-09-14T16:05:25.256Z,15.90
2022-09-14T16:07:59.349Z,17.53
2022-09-14T16:10:37.262Z,15.77
2022-09-14T16:13:22.732Z,17.03
2022-09-14T16:16:10.629Z,19.33
2022-09-14T16:19:00.286Z,20.53
2022-09-14T16:25:19.373Z,17.63
2022-09-14T16:28:30.861Z,18.77
2022-09-14T16:37:46.003Z,17.23
2022-09-14T16:40:14.420Z,16.23
2022-09-14T16:42:47.315Z,14.80
2022-09-14T16:45:28.598Z,15.27
2022-09-14T16:48:14.775Z,15.27
2022-09-14T16:57:07.538Z,17.43
2022-09-14T16:59:37.623Z,16.17
2022-09-14T17:02:12.314Z,15.93
2022-09-14T17:05:30.701Z,15.97
2022-09-14T17:08:14.626Z,16.40
2022-09-14T17:21:02.013Z,16.27
2022-09-14T17:23:50.135Z,14.90
2022-09-14T17:26:29.788Z,14.60
2022-09-14T17:29:00.249Z,14.60
2022-09-14T17:32:01.111Z,14.90
2022-09-14T17:38:05.929Z,14.47
2022-09-14T17:40:43.502Z,15.37
2022-09-14T17:43:19.023Z,15.27
2022-09-14T17:45:54.307Z,14.50
2022-09-14T17:48:25.902Z,14.80
2022-09-14T17:50:54.606Z,13.83
2022-09-14T17:53:28.785Z,14.10
2022-09-14T17:56:10.396Z,13.57
2022-09-14T17:58:39.796Z,24.20
2022-09-14T18:01:10.995Z,13.23
2022-09-14T18:03:44.406Z,12.20
2022-09-14T18:06:27.910Z,16.30
2022-09-14T18:09:08.926Z,11.60
2022-09-14T18:11:42.834Z,11.63
2022-09-14T18:14:15.820Z,11.47
2022-09-14T18:16:47.005Z,10.53
2022-09-14T18:19:15.990Z,10.20
2022-09-14T18:21:48.905Z,10.53
2022-09-14T18:24:23.888Z,11.90
2022-09-14T18:26:55.160Z,12.50
2022-09-14T18:29:23.890Z,12.53
2022-09-14T18:32:21.888Z,10.37
2022-09-14T18:35:12.668Z,11.70
2022-09-14T18:37:43.052Z,12.13
2022-09-14T18:40:25.088Z,18.33
2022-09-14T18:45:57.261Z,9.83
2022-09-14T18:48:26.363Z,7.13
2022-09-14T18:50:54.893Z,6.77
2022-09-14T18:53:40.050Z,7.13
2022-09-14T18:56:17.092Z,6.70
2022-09-14T18:58:51.414Z,8.53
2022-09-14T19:01:38.269Z,6.37
2022-09-14T19:04:46.989Z,4.63
2022-09-14T19:07:18.037Z,7.63
2022-09-14T19:10:11.386Z,6.77
2022-09-14T19:12:45.377Z,5.20
2022-09-14T19:15:36.052Z,5.37
2022-09-14T19:21:15.738Z,3.53
2022-09-14T19:23:45.667Z,3.40
2022-09-14T19:26:35.415Z,3.20
2022-09-14T19:32:41.990Z,2.60
2022-09-14T19:35:17.709Z,2.50
2022-09-14T19:37:48.640Z,2.60
2022-09-14T19:40:20.173Z,2.90
2022-09-14T19:42:48.767Z,2.07
2022-09-14T19:45:20.868Z,2.20
2022-09-14T19:47:53.361Z,2.40
2022-09-14T19:50:21.786Z,3.40
2022-09-14T19:52:52.198Z,3.63
2022-09-14T19:55:21.931Z,3.93
2022-09-14T19:57:50.398Z,3.80
2022-09-14T20:00:19.171Z,3.67
2022-09-14T20:02:47.667Z,3.50
2022-09-14T20:05:21.483Z,3.80
2022-09-14T20:07:55.666Z,4.90
2022-09-14T20:10:38.490Z,4.50
2022-09-14T20:13:28.447Z,3.73
2022-09-14T20:16:28.827Z,2.80
2022-09-14T20:19:07.220Z,2.90
2022-09-14T20:21:37.666Z,2.77
2022-09-14T20:24:16.680Z,2.60
2022-09-14T20:30:40.247Z,1.03
2022-09-14T20:33:21.155Z,1.20
2022-09-14T20:35:49.729Z,0.93
2022-09-14T20:44:43.056Z,1.37
2022-09-14T20:47:11.389Z,1.80
2022-09-14T20:49:39.695Z,1.50
2022-09-14T20:52:12.304Z,1.60
2022-09-14T20:54:49.318Z,1.40
2022-09-14T20:57:18.087Z,1.30
2022-09-14T20:59:46.533Z,1.30
2022-09-14T21:02:21.288Z,1.60
2022-09-14T21:04:52.853Z,1.30
2022-09-14T21:07:34.106Z,1.00
2022-09-14T21:10:29.489Z,0.90
2022-09-14T21:13:10.835Z,0.70
2022-09-14T21:15:40.439Z,0.87
2022-09-14T21:18:10.579Z,0.80
2022-09-14T21:20:39.914Z,0.80
2022-09-14T21:23:13.321Z,0.70
2022-09-14T21:25:54.531Z,0.80
2022-09-14T21:28:23.161Z,0.87
2022-09-14T21:31:12.630Z,0.70
2022-09-14T21:33:49.444Z,0.80
2022-09-14T21:36:20.319Z,0.80
2022-09-14T21:38:54.017Z,0.97
2022-09-14T21:41:26.195Z,0.70
2022-09-14T21:44:01.987Z,0.80
2022-09-14T21:46:35.130Z,0.70
2022-09-14T21:49:03.765Z,0.80
2022-09-14T21:51:33.502Z,0.90
2022-09-14T21:54:04.165Z,0.80
2022-09-14T21:56:36.813Z,1.00
2022-09-14T21:59:07.956Z,0.90
2022-09-14T22:01:36.792Z,0.83
2022-09-14T22:04:07.719Z,1.00
2022-09-14T22:06:37.085Z,1.37
2022-09-14T22:09:05.738Z,1.43
2022-09-14T22:11:37.488Z,1.40
2022-09-14T22:14:09.801Z,1.60
2022-09-14T22:16:39.198Z,1.70
2022-09-14T22:19:09.116Z,2.40
2022-09-14T22:21:39.853Z,2.30
2022-09-14T22:24:11.272Z,2.00
2022-09-14T22:26:45.199Z,2.30
2022-09-14T22:29:14.794Z,2.03
2022-09-14T22:31:45.075Z,2.17
2022-09-14T22:34:14.130Z,2.23
2022-09-14T22:36:42.599Z,2.50
2022-09-14T22:39:12.024Z,2.60
2022-09-14T22:41:42.000Z,3.17
2022-09-14T22:44:12.940Z,2.37
2022-09-14T22:46:41.298Z,2.77
2022-09-14T22:49:09.641Z,3.70
2022-09-14T22:51:38.372Z,4.13
2022-09-14T22:54:07.367Z,4.60
2022-09-14T22:56:37.498Z,4.37
2022-09-14T22:59:09.260Z,4.33
2022-09-14T23:01:39.217Z,3.87
2022-09-14T23:04:09.165Z,4.53
2022-09-14T23:06:40.261Z,5.00
2022-09-14T23:09:10.087Z,4.43
2022-09-14T23:11:38.581Z,4.83
2022-09-14T23:14:08.330Z,5.70
2022-09-14T23:16:36.620Z,5.33
2022-09-14T23:19:07.852Z,5.40
2022-09-14T23:21:37.233Z,5.40
2022-09-14T23:24:09.371Z,5.30
2022-09-14T23:26:37.758Z,6.10
2022-09-14T23:29:13.506Z,5.80
2022-09-14T23:31:41.835Z,5.80
2022-09-14T23:34:10.230Z,5.67
2022-09-14T23:36:38.464Z,5.87
2022-09-14T23:39:06.989Z,5.90
2022-09-14T23:41:35.363Z,5.80
2022-09-14T23:44:04.199Z,6.10
2022-09-14T23:46:34.017Z,6.17
2022-09-14T23:49:02.344Z,6.43
2022-09-14T23:51:30.592Z,6.33
2022-09-14T23:53:58.867Z,6.13
2022-09-14T23:56:27.117Z,6.80
2022-09-14T23:58:55.425Z,6.90
